createdAt,value
2019-05-20T00:00:31.396Z,13.09
2019-05-20T00:02:57.546Z,13.06
2019-05-20T00:05:24.026Z,12.76
2019-05-20T00:07:50.227Z,12.40
2019-05-20T00:10:16.604Z,12.23
2019-05-20T00:12:42.825Z,12.33
2019-05-20T00:15:09.178Z,12.25
2019-05-20T00:17:35.396Z,12.35
2019-05-20T00:20:03.654Z,12.49
2019-05-20T00:22:29.779Z,12.52
2019-05-20T00:24:55.879Z,12.58
2019-05-20T00:27:22.124Z,12.73
2019-05-20T00:29:48.554Z,12.81
2019-05-20T00:32:15.743Z,12.58
2019-05-20T00:34:42.175Z,12.61
2019-05-20T00:37:08.483Z,12.68
2019-05-20T00:39:34.887Z,12.47
2019-05-20T00:42:01.036Z,12.62
2019-05-20T00:44:27.388Z,12.84
2019-05-20T00:46:53.622Z,12.94
2019-05-20T00:49:19.934Z,12.88
2019-05-20T00:51:46.278Z,12.64
2019-05-20T00:54:12.586Z,12.52
2019-05-20T00:56:38.925Z,12.51
2019-05-20T00:59:05.573Z,12.46
2019-05-20T01:01:32.037Z,12.22
2019-05-20T01:03:58.140Z,12.17
2019-05-20T01:06:24.741Z,11.96
2019-05-20T01:08:51.061Z,12.03
2019-05-20T01:11:17.306Z,11.99
2019-05-20T01:13:43.735Z,12.05
2019-05-20T01:16:10.101Z,12.21
2019-05-20T01:18:36.341Z,12.17
2019-05-20T01:21:02.559Z,12.05
2019-05-20T01:23:28.777Z,12.20
2019-05-20T01:25:54.967Z,12.14
2019-05-20T01:28:21.113Z,12.10
2019-05-20T01:30:47.337Z,12.14
2019-05-20T01:33:14.464Z,12.24
2019-05-20T01:35:40.902Z,11.88
2019-05-20T01:38:07.292Z,11.88
2019-05-20T01:40:33.576Z,11.89
2019-05-20T01:42:59.738Z,11.96
2019-05-20T01:45:26.036Z,11.92
2019-05-20T01:47:52.129Z,11.90
2019-05-20T01:50:18.528Z,11.71
2019-05-20T01:52:44.779Z,11.53
2019-05-20T01:55:11.181Z,11.91
2019-05-20T01:57:37.265Z,11.43
2019-05-20T02:00:06.297Z,11.36
2019-05-20T02:02:33.485Z,11.55
2019-05-20T02:04:59.597Z,11.77
2019-05-20T02:07:25.910Z,11.71
2019-05-20T02:09:52.122Z,11.81
2019-05-20T02:12:18.579Z,11.92
2019-05-20T02:14:46.843Z,11.92
2019-05-20T02:17:13.095Z,11.97
2019-05-20T02:19:39.388Z,11.91
2019-05-20T02:22:05.780Z,11.77
2019-05-20T02:24:31.991Z,11.67
2019-05-20T02:26:58.117Z,11.55
2019-05-20T02:29:24.275Z,11.50
2019-05-20T02:31:51.349Z,11.27
2019-05-20T02:34:17.494Z,11.37
2019-05-20T02:36:43.604Z,11.25
2019-05-20T02:39:09.874Z,11.13
2019-05-20T02:41:36.218Z,10.80
2019-05-20T02:44:02.437Z,10.99
2019-05-20T02:46:28.646Z,11.07
2019-05-20T02:48:54.779Z,10.96
2019-05-20T02:51:29.975Z,10.90
2019-05-20T02:53:56.108Z,10.99
2019-05-20T02:56:23.422Z,11.13
2019-05-20T02:58:49.661Z,11.18
2019-05-20T03:01:16.046Z,11.28
2019-05-20T03:03:42.291Z,11.07
2019-05-20T03:06:08.633Z,11.04
2019-05-20T03:08:34.733Z,11.00
2019-05-20T03:11:01.262Z,10.91
2019-05-20T03:13:27.490Z,10.72
2019-05-20T03:15:53.733Z,10.73
2019-05-20T03:18:19.966Z,10.74
2019-05-20T03:20:46.175Z,10.88
2019-05-20T03:23:12.328Z,10.61
2019-05-20T03:25:38.641Z,10.81
2019-05-20T03:28:04.875Z,10.49
2019-05-20T03:30:31.128Z,10.50
2019-05-20T03:32:57.365Z,10.62
2019-05-20T03:35:23.721Z,10.89
2019-05-20T03:37:49.916Z,10.99
2019-05-20T03:40:16.223Z,11.10
2019-05-20T03:42:42.455Z,10.98
2019-05-20T03:45:08.785Z,10.82
2019-05-20T03:47:35.250Z,10.86
2019-05-20T03:50:01.618Z,11.00
2019-05-20T03:52:28.061Z,10.98
2019-05-20T03:54:54.155Z,10.90
2019-05-20T03:57:20.497Z,10.87
2019-05-20T03:59:47.113Z,11.02
2019-05-20T04:02:13.332Z,11.30
2019-05-20T04:04:39.553Z,11.29
2019-05-20T04:07:05.789Z,11.29
2019-05-20T04:09:32.041Z,11.44
2019-05-20T04:11:58.258Z,11.58
2019-05-20T04:14:24.403Z,11.69
2019-05-20T04:16:51.693Z,11.78
2019-05-20T04:19:18.054Z,11.76
2019-05-20T04:21:45.319Z,11.82
2019-05-20T04:24:11.701Z,11.97
2019-05-20T04:26:38.009Z,12.09
2019-05-20T04:29:04.329Z,12.15
2019-05-20T04:31:30.523Z,12.19
2019-05-20T04:33:56.729Z,12.29
2019-05-20T04:36:22.850Z,12.40
2019-05-20T04:38:48.962Z,12.41
2019-05-20T04:41:15.306Z,12.49
2019-05-20T04:43:41.504Z,12.53
2019-05-20T04:46:07.736Z,12.54
2019-05-20T04:48:33.881Z,12.59
2019-05-20T04:51:00.207Z,12.66
2019-05-20T04:53:26.658Z,12.66
2019-05-20T04:55:52.900Z,12.54
2019-05-20T04:58:19.333Z,12.60
2019-05-20T05:00:49.321Z,12.73
2019-05-20T05:03:15.447Z,12.48
2019-05-20T05:05:41.766Z,12.64
2019-05-20T05:08:09.286Z,12.77
2019-05-20T05:10:35.569Z,12.60
2019-05-20T05:13:01.904Z,12.16
2019-05-20T05:15:28.224Z,12.22
2019-05-20T05:17:54.556Z,12.17
2019-05-20T05:20:20.896Z,12.41
2019-05-20T05:22:47.236Z,12.19
2019-05-20T05:25:13.614Z,12.27
2019-05-20T05:27:39.992Z,12.45
2019-05-20T05:30:06.633Z,12.67
2019-05-20T05:32:39.907Z,12.85
2019-05-20T05:35:06.248Z,12.88
2019-05-20T05:37:32.538Z,12.74
2019-05-20T05:39:58.867Z,12.57
2019-05-20T05:42:24.993Z,12.52
2019-05-20T05:44:51.110Z,12.66
2019-05-20T05:47:17.354Z,12.82
2019-05-20T05:49:43.633Z,12.98
2019-05-20T05:52:09.921Z,13.11
2019-05-20T05:54:36.035Z,13.18
2019-05-20T05:57:02.337Z,13.30
2019-05-20T05:59:28.486Z,13.33
2019-05-20T06:01:54.571Z,13.47
2019-05-20T06:04:20.684Z,13.46
2019-05-20T06:06:47.059Z,13.56
2019-05-20T06:09:13.171Z,13.61
2019-05-20T06:11:39.440Z,13.52
2019-05-20T06:14:05.659Z,13.38
2019-05-20T06:16:36.341Z,12.99
2019-05-20T06:19:01.014Z,12.79
2019-05-20T06:21:27.429Z,12.95
2019-05-20T06:23:53.625Z,13.05
2019-05-20T06:26:19.752Z,12.84
2019-05-20T06:28:45.872Z,12.93
2019-05-20T06:31:12.242Z,13.07
2019-05-20T06:33:38.569Z,13.09
2019-05-20T06:36:04.791Z,12.91
2019-05-20T06:38:35.942Z,13.02
2019-05-20T06:41:04.438Z,12.91
2019-05-20T06:43:30.761Z,12.81
2019-05-20T06:45:56.875Z,12.91
2019-05-20T06:48:23.221Z,12.82
2019-05-20T06:50:49.337Z,12.86
2019-05-20T06:53:15.586Z,13.12
2019-05-20T06:55:41.688Z,13.09
2019-05-20T06:58:07.904Z,13.15
2019-05-20T07:00:36.070Z,13.07
2019-05-20T07:03:03.324Z,12.99
2019-05-20T07:05:29.462Z,12.97
2019-05-20T07:07:56.021Z,13.00
2019-05-20T07:10:22.127Z,13.03
2019-05-20T07:12:48.432Z,12.96
2019-05-20T07:15:14.844Z,12.76
2019-05-20T07:17:41.185Z,12.48
2019-05-20T07:20:07.855Z,12.60
2019-05-20T07:22:34.047Z,12.78
2019-05-20T07:25:00.490Z,12.85
2019-05-20T07:27:26.688Z,12.86
2019-05-20T07:29:52.929Z,13.03
2019-05-20T07:32:19.347Z,12.88
2019-05-20T07:34:45.565Z,12.92
2019-05-20T07:37:11.878Z,12.89
2019-05-20T07:39:39.015Z,13.09
2019-05-20T07:42:05.323Z,13.20
2019-05-20T07:44:31.619Z,13.29
2019-05-20T07:46:57.992Z,13.47
2019-05-20T07:49:24.289Z,13.64
2019-05-20T07:51:51.075Z,13.53
2019-05-20T07:54:18.410Z,13.45
2019-05-20T07:56:46.521Z,12.97
2019-05-20T07:59:16.046Z,13.05
2019-05-20T08:01:43.316Z,13.18
2019-05-20T08:04:09.660Z,13.34
2019-05-20T08:06:36.176Z,13.20
2019-05-20T08:09:05.302Z,13.29
2019-05-20T08:11:31.918Z,13.06
2019-05-20T08:13:58.285Z,12.90
2019-05-20T08:16:24.790Z,13.10
2019-05-20T08:18:51.228Z,13.14
2019-05-20T08:21:17.491Z,13.17
2019-05-20T08:23:43.897Z,13.12
2019-05-20T08:26:10.242Z,13.31
2019-05-20T08:28:36.517Z,13.54
2019-05-20T08:31:02.927Z,13.68
2019-05-20T08:33:29.615Z,13.79
2019-05-20T08:35:55.825Z,13.72
2019-05-20T08:38:22.071Z,13.80
2019-05-20T08:40:48.914Z,13.96
2019-05-20T08:43:15.325Z,13.84
2019-05-20T08:45:41.538Z,13.98
2019-05-20T08:48:07.780Z,13.88
2019-05-20T08:50:34.001Z,13.88
2019-05-20T08:53:00.237Z,13.98
2019-05-20T08:55:26.664Z,14.19
2019-05-20T08:57:53.098Z,14.29
2019-05-20T09:00:23.716Z,14.47
2019-05-20T09:02:49.447Z,14.44
2019-05-20T09:05:15.719Z,14.46
2019-05-20T09:07:42.133Z,14.54
2019-05-20T09:10:08.570Z,14.66
2019-05-20T09:12:34.787Z,14.69
2019-05-20T09:15:01.167Z,14.64
2019-05-20T09:17:27.627Z,14.81
2019-05-20T09:19:53.773Z,14.87
2019-05-20T09:22:20.150Z,14.90
2019-05-20T09:24:46.560Z,14.78
2019-05-20T09:27:12.765Z,14.78
2019-05-20T09:29:39.105Z,14.58
2019-05-20T09:32:05.598Z,14.47
2019-05-20T09:34:32.058Z,14.54
2019-05-20T09:36:58.420Z,14.77
2019-05-20T09:39:24.547Z,14.96
2019-05-20T09:41:50.868Z,15.08
2019-05-20T09:44:17.177Z,15.08
2019-05-20T09:46:43.395Z,15.13
2019-05-20T09:49:09.641Z,15.12
2019-05-20T09:51:35.801Z,15.11
2019-05-20T09:54:02.127Z,14.96
2019-05-20T09:56:28.338Z,14.99
2019-05-20T09:58:54.557Z,15.08
2019-05-20T10:01:20.970Z,14.80
2019-05-20T10:03:47.302Z,14.83
2019-05-20T10:06:13.612Z,14.85
2019-05-20T10:08:44.819Z,15.07
2019-05-20T10:11:08.069Z,15.27
2019-05-20T10:13:35.494Z,15.37
2019-05-20T10:16:03.267Z,15.35
2019-05-20T10:18:37.251Z,15.30
2019-05-20T10:20:57.772Z,15.21
2019-05-20T10:23:24.204Z,15.14
2019-05-20T10:25:50.392Z,15.27
2019-05-20T10:28:16.717Z,15.23
2019-05-20T10:30:42.891Z,15.39
2019-05-20T10:33:10.442Z,15.62
2019-05-20T10:35:37.367Z,15.42
2019-05-20T10:38:03.692Z,15.49
2019-05-20T10:40:29.837Z,15.53
2019-05-20T10:42:57.029Z,15.75
2019-05-20T10:45:23.137Z,15.98
2019-05-20T10:47:49.367Z,15.96
2019-05-20T10:50:15.749Z,16.05
2019-05-20T10:52:42.067Z,15.76
2019-05-20T10:55:08.635Z,15.83
2019-05-20T10:57:34.973Z,16.07
2019-05-20T11:00:01.820Z,16.25
2019-05-20T11:02:31.282Z,16.33
2019-05-20T11:04:57.332Z,16.50
2019-05-20T11:07:23.583Z,16.03
2019-05-20T11:09:50.110Z,16.15
2019-05-20T11:12:16.441Z,16.27
2019-05-20T11:14:42.840Z,16.42
2019-05-20T11:17:09.131Z,16.40
2019-05-20T11:19:35.267Z,16.63
2019-05-20T11:22:01.610Z,16.67
2019-05-20T11:24:27.825Z,16.41
2019-05-20T11:26:54.210Z,16.56
2019-05-20T11:29:20.506Z,16.52
2019-05-20T11:31:46.835Z,16.59
2019-05-20T11:34:13.045Z,16.85
2019-05-20T11:36:39.182Z,17.06
2019-05-20T11:39:07.378Z,17.29
2019-05-20T11:41:52.920Z,17.45
2019-05-20T11:44:02.300Z,17.35
2019-05-20T11:46:28.520Z,17.42
2019-05-20T11:48:54.756Z,17.61
2019-05-20T11:51:20.839Z,17.52
2019-05-20T11:53:47.009Z,17.21
2019-05-20T11:56:13.144Z,16.99
2019-05-20T11:58:39.496Z,17.13
2019-05-20T12:01:06.325Z,17.46
2019-05-20T12:03:32.612Z,17.62
2019-05-20T12:05:59.030Z,17.34
2019-05-20T12:08:25.221Z,17.26
2019-05-20T12:10:51.443Z,17.49
2019-05-20T12:13:17.647Z,17.28
2019-05-20T12:15:43.866Z,17.25
2019-05-20T12:18:10.093Z,17.27
2019-05-20T12:20:36.303Z,17.43
2019-05-20T12:23:02.661Z,17.35
2019-05-20T12:25:28.771Z,17.45
2019-05-20T12:27:56.340Z,17.45
2019-05-20T12:30:23.473Z,17.56
2019-05-20T12:32:49.706Z,17.81
2019-05-20T12:35:15.828Z,17.86
2019-05-20T12:37:45.488Z,17.92
2019-05-20T12:40:10.492Z,18.00
2019-05-20T12:42:36.911Z,18.09
2019-05-20T12:45:07.488Z,18.23
2019-05-20T12:47:33.677Z,18.36
2019-05-20T12:49:59.939Z,18.58
2019-05-20T12:52:26.156Z,18.44
2019-05-20T12:55:06.644Z,18.48
2019-05-20T12:57:20.651Z,18.68
2019-05-20T12:59:47.036Z,18.83
2019-05-20T13:02:17.303Z,18.74
2019-05-20T13:04:41.233Z,18.29
2019-05-20T13:07:07.343Z,18.42
2019-05-20T13:09:33.787Z,18.44
2019-05-20T13:11:59.930Z,18.43
2019-05-20T13:14:26.140Z,18.31
2019-05-20T13:16:52.320Z,18.34
2019-05-20T13:19:18.489Z,18.38
2019-05-20T13:21:44.590Z,18.49
2019-05-20T13:24:10.704Z,18.62
2019-05-20T13:26:37.120Z,18.68
2019-05-20T13:29:03.680Z,18.49
2019-05-20T13:31:29.920Z,18.31
2019-05-20T13:33:56.062Z,18.18
2019-05-20T13:36:22.307Z,18.23
2019-05-20T13:38:48.414Z,18.13
2019-05-20T13:41:15.875Z,18.38
2019-05-20T13:43:42.245Z,18.34
2019-05-20T13:46:08.560Z,18.32
2019-05-20T13:48:34.790Z,18.20
2019-05-20T13:51:01.031Z,18.28
2019-05-20T13:53:27.278Z,18.27
2019-05-20T13:55:53.639Z,18.50
2019-05-20T13:58:19.882Z,18.64
2019-05-20T14:00:46.119Z,18.69
2019-05-20T14:03:12.366Z,18.68
2019-05-20T14:05:38.716Z,18.83
2019-05-20T14:08:04.863Z,18.91
2019-05-20T14:10:31.123Z,18.48
2019-05-20T14:12:57.233Z,18.41
2019-05-20T14:15:23.570Z,18.43
2019-05-20T14:17:50.062Z,18.39
2019-05-20T14:20:16.762Z,18.40
2019-05-20T14:22:45.599Z,18.39
2019-05-20T14:25:12.972Z,18.48
2019-05-20T14:27:39.328Z,18.57
2019-05-20T14:30:07.395Z,18.58
2019-05-20T14:32:34.202Z,18.76
2019-05-20T14:35:00.393Z,18.98
2019-05-20T14:37:26.490Z,19.01
2019-05-20T14:39:52.690Z,19.14
2019-05-20T14:42:18.928Z,19.26
2019-05-20T14:44:45.051Z,19.41
2019-05-20T14:47:11.433Z,19.30
2019-05-20T14:49:37.838Z,19.24
2019-05-20T14:52:04.148Z,19.02
2019-05-20T14:54:30.253Z,18.97
2019-05-20T14:56:56.567Z,18.61
2019-05-20T14:59:22.681Z,18.66
2019-05-20T15:01:49.038Z,18.66
2019-05-20T15:04:15.293Z,18.32
2019-05-20T15:06:41.754Z,18.42
2019-05-20T15:09:07.975Z,18.49
2019-05-20T15:11:38.116Z,18.44
2019-05-20T15:14:02.769Z,18.37
2019-05-20T15:16:29.218Z,18.38
2019-05-20T15:18:55.660Z,18.30
2019-05-20T15:21:21.980Z,18.11
2019-05-20T15:23:48.357Z,18.12
2019-05-20T15:26:14.739Z,18.27
2019-05-20T15:28:40.892Z,18.33
2019-05-20T15:31:07.137Z,18.24
2019-05-20T15:33:33.476Z,18.33
2019-05-20T15:35:59.857Z,18.40
2019-05-20T15:38:26.110Z,18.40
2019-05-20T15:40:52.206Z,18.37
2019-05-20T15:43:18.418Z,18.41
2019-05-20T15:45:44.616Z,18.40
2019-05-20T15:48:10.829Z,18.35
2019-05-20T15:50:36.970Z,18.44
2019-05-20T15:53:03.542Z,18.48
2019-05-20T15:55:29.879Z,18.66
2019-05-20T15:57:56.039Z,18.47
2019-05-20T16:00:22.468Z,18.56
2019-05-20T16:02:48.820Z,18.62
2019-05-20T16:05:15.166Z,18.62
2019-05-20T16:07:41.537Z,18.83
2019-05-20T16:10:08.247Z,18.80
2019-05-20T16:12:34.879Z,18.87
2019-05-20T16:15:01.398Z,18.93
2019-05-20T16:17:27.819Z,18.96
2019-05-20T16:19:54.267Z,19.02
2019-05-20T16:22:20.446Z,18.84
2019-05-20T16:24:46.672Z,18.67
2019-05-20T16:27:12.837Z,18.63
2019-05-20T16:29:39.309Z,18.70
2019-05-20T16:32:05.661Z,18.75
2019-05-20T16:34:31.870Z,18.79
2019-05-20T16:36:59.282Z,18.70
2019-05-20T16:39:25.546Z,18.69
2019-05-20T16:41:51.942Z,18.74
2019-05-20T16:44:18.398Z,18.59
2019-05-20T16:46:44.622Z,18.59
2019-05-20T16:49:11.005Z,18.52
2019-05-20T16:51:37.676Z,18.49
2019-05-20T16:54:04.087Z,18.43
2019-05-20T16:56:30.369Z,18.46
2019-05-20T16:58:56.695Z,18.48
2019-05-20T17:01:23.069Z,18.44
2019-05-20T17:03:49.295Z,18.42
2019-05-20T17:06:16.752Z,18.42
2019-05-20T17:08:43.014Z,18.46
2019-05-20T17:11:09.281Z,18.55
2019-05-20T17:13:35.710Z,18.53
2019-05-20T17:16:02.231Z,18.52
2019-05-20T17:18:28.574Z,18.62
2019-05-20T17:20:55.069Z,18.64
2019-05-20T17:23:21.286Z,18.64
2019-05-20T17:25:50.704Z,18.68
2019-05-20T17:28:15.858Z,18.73
2019-05-20T17:30:45.511Z,18.74
2019-05-20T17:33:10.677Z,18.73
2019-05-20T17:35:36.921Z,18.77
2019-05-20T17:38:03.403Z,18.76
2019-05-20T17:40:29.735Z,18.76
2019-05-20T17:42:56.058Z,18.72
2019-05-20T17:45:22.607Z,18.67
2019-05-20T17:47:49.066Z,18.70
2019-05-20T17:50:15.501Z,18.65
2019-05-20T17:52:41.741Z,18.57
2019-05-20T17:55:08.164Z,18.61
2019-05-20T17:57:34.490Z,18.55
2019-05-20T18:00:01.132Z,18.49
2019-05-20T18:02:27.477Z,18.37
2019-05-20T18:04:53.707Z,18.21
2019-05-20T18:07:20.029Z,18.18
2019-05-20T18:09:48.804Z,18.21
2019-05-20T18:12:15.197Z,18.13
2019-05-20T18:14:42.268Z,18.18
2019-05-20T18:17:08.657Z,18.37
2019-05-20T18:19:34.988Z,18.48
2019-05-20T18:22:01.296Z,18.39
2019-05-20T18:24:27.750Z,18.37
2019-05-20T18:26:54.057Z,18.21
2019-05-20T18:29:20.411Z,18.05
2019-05-20T18:31:47.598Z,18.11
2019-05-20T18:34:14.060Z,18.01
2019-05-20T18:36:40.722Z,18.05
2019-05-20T18:39:07.192Z,17.99
2019-05-20T18:41:33.503Z,17.95
2019-05-20T18:43:59.887Z,17.93
2019-05-20T18:46:26.171Z,17.92
2019-05-20T18:48:52.379Z,17.93
2019-05-20T18:51:18.637Z,17.98
2019-05-20T18:53:45.492Z,17.97
2019-05-20T18:56:11.774Z,17.98
2019-05-20T18:58:38.111Z,18.04
2019-05-20T19:01:04.974Z,18.03
2019-05-20T19:03:31.668Z,17.94
2019-05-20T19:05:58.101Z,17.95
2019-05-20T19:08:25.658Z,17.94
2019-05-20T19:10:51.934Z,17.92
2019-05-20T19:13:18.290Z,17.90
2019-05-20T19:15:44.537Z,17.90
2019-05-20T19:18:10.894Z,17.91
2019-05-20T19:20:37.224Z,17.82
2019-05-20T19:23:03.573Z,17.79
2019-05-20T19:25:37.420Z,17.79
2019-05-20T19:27:58.327Z,17.79
2019-05-20T19:30:24.885Z,17.77
2019-05-20T19:32:51.414Z,17.71
2019-05-20T19:35:17.945Z,17.63
2019-05-20T19:37:44.519Z,17.67
2019-05-20T19:40:11.341Z,17.69
2019-05-20T19:42:39.116Z,17.60
2019-05-20T19:45:07.088Z,17.56
2019-05-20T19:47:33.588Z,17.60
2019-05-20T19:50:00.142Z,17.51
2019-05-20T19:52:26.283Z,17.54
2019-05-20T19:54:52.770Z,17.60
2019-05-20T19:57:19.370Z,17.57
2019-05-20T19:59:45.682Z,17.58
2019-05-20T20:02:17.388Z,17.54
2019-05-20T20:04:40.102Z,17.54
2019-05-20T20:07:06.449Z,17.46
2019-05-20T20:09:32.586Z,17.53
2019-05-20T20:11:58.995Z,17.50
2019-05-20T20:14:25.171Z,17.50
2019-05-20T20:16:51.555Z,17.46
2019-05-20T20:19:17.758Z,17.44
2019-05-20T20:21:44.098Z,17.44
2019-05-20T20:24:10.379Z,17.43
2019-05-20T20:26:36.620Z,17.37
2019-05-20T20:29:02.835Z,17.39
2019-05-20T20:31:29.225Z,17.39
2019-05-20T20:33:55.445Z,17.34
2019-05-20T20:36:21.734Z,17.35
2019-05-20T20:38:47.960Z,17.32
2019-05-20T20:41:15.448Z,17.27
2019-05-20T20:43:41.850Z,17.20
2019-05-20T20:46:08.033Z,17.21
2019-05-20T20:48:34.367Z,17.20
2019-05-20T20:51:00.574Z,17.12
2019-05-20T20:53:26.822Z,17.07
2019-05-20T20:55:53.174Z,17.02
2019-05-20T20:58:19.559Z,16.97
2019-05-20T21:00:46.000Z,17.03
2019-05-20T21:03:12.362Z,16.98
2019-05-20T21:05:38.689Z,16.99
2019-05-20T21:08:05.005Z,16.98
2019-05-20T21:10:31.300Z,16.90
2019-05-20T21:12:57.435Z,16.87
2019-05-20T21:15:23.681Z,16.89
2019-05-20T21:17:49.911Z,16.85
2019-05-20T21:20:17.434Z,16.73
2019-05-20T21:22:43.791Z,16.68
2019-05-20T21:25:10.027Z,16.65
2019-05-20T21:27:36.147Z,16.57
2019-05-20T21:30:04.967Z,16.52
2019-05-20T21:32:31.271Z,16.50
2019-05-20T21:34:58.604Z,16.46
2019-05-20T21:37:24.787Z,16.40
2019-05-20T21:39:50.939Z,16.42
2019-05-20T21:42:17.289Z,16.28
2019-05-20T21:44:43.629Z,16.28
2019-05-20T21:47:09.953Z,16.29
2019-05-20T21:49:36.208Z,16.24
2019-05-20T21:52:02.483Z,16.20
2019-05-20T21:54:28.611Z,16.19
2019-05-20T21:56:54.955Z,16.17
2019-05-20T21:59:21.340Z,16.16
2019-05-20T22:01:47.560Z,16.21
2019-05-20T22:04:13.768Z,16.18
2019-05-20T22:06:39.911Z,16.16
2019-05-20T22:09:06.422Z,16.14
2019-05-20T22:11:32.892Z,16.14
2019-05-20T22:13:59.067Z,16.11
2019-05-20T22:16:25.177Z,16.02
2019-05-20T22:18:51.368Z,15.99
2019-05-20T22:21:19.398Z,15.89
2019-05-20T22:23:50.353Z,15.82
2019-05-20T22:26:16.596Z,15.79
2019-05-20T22:28:43.079Z,15.76
2019-05-20T22:31:09.279Z,15.75
2019-05-20T22:33:41.314Z,15.76
2019-05-20T22:36:03.788Z,15.71
2019-05-20T22:38:30.022Z,15.61
2019-05-20T22:40:56.356Z,15.55
2019-05-20T22:43:22.780Z,15.49
2019-05-20T22:45:50.264Z,15.55
2019-05-20T22:48:16.415Z,15.52
2019-05-20T22:50:43.016Z,15.44
2019-05-20T22:53:09.163Z,15.40
2019-05-20T22:55:35.310Z,15.32
2019-05-20T22:58:01.599Z,15.35
2019-05-20T23:00:27.931Z,15.28
2019-05-20T23:02:54.058Z,15.24
2019-05-20T23:05:20.425Z,15.20
2019-05-20T23:07:46.657Z,15.21
2019-05-20T23:10:12.966Z,15.02
2019-05-20T23:12:39.082Z,15.02
2019-05-20T23:15:06.241Z,14.86
2019-05-20T23:17:32.560Z,14.84
2019-05-20T23:19:58.679Z,14.83
2019-05-20T23:22:24.916Z,14.89
2019-05-20T23:24:51.150Z,14.91
2019-05-20T23:27:17.295Z,14.85
2019-05-20T23:29:43.396Z,14.80
2019-05-20T23:32:09.741Z,14.78
2019-05-20T23:34:36.020Z,14.64
2019-05-20T23:37:02.248Z,14.63
2019-05-20T23:39:29.477Z,14.63
2019-05-20T23:41:55.608Z,14.65
2019-05-20T23:44:21.750Z,14.64
2019-05-20T23:46:47.985Z,14.61
2019-05-20T23:49:14.121Z,14.57
2019-05-20T23:51:40.376Z,14.51
2019-05-20T23:54:06.588Z,14.50
2019-05-20T23:56:32.972Z,14.48
2019-05-20T23:58:59.283Z,14.47
